Time;durP1;ratioP1;P1;durP2;ratioP2;P2;SDS_P1;SDS_P2;PMS_P1;PMS_P2;Temp;Humidity;BMP_temperature;BMP_pressure;BME280_temperature;BME280_humidity;BME280_pressure;Samples;Min_cycle;Max_cycle;Signal;HPM_P1;HPM_P2
2023/04/25 00:00:06;;;;;;;22.33;20.20;;;;;;;;;;5077190;28;20501;-84
2023/04/25 00:02:34;;;;;;;24.30;22.00;;;;;;;;;;5078170;28;20199;-84
2023/04/25 00:05:03;;;;;;;23.05;21.02;;;;;;;;;;5078469;28;20203;-84
2023/04/25 00:07:31;;;;;;;22.38;20.67;;;;;;;;;;5084170;28;20207;-84
2023/04/25 00:09:58;;;;;;;20.95;19.15;;;;;;;;;;5079568;28;20219;-83
2023/04/25 00:12:25;;;;;;;21.33;19.90;;;;;;;;;;5077333;28;20256;-83
2023/04/25 00:14:53;;;;;;;23.20;21.20;;;;;;;;;;5077923;28;20235;-83
2023/04/25 00:17:20;;;;;;;21.10;19.17;;;;;;;;;;5076105;28;20446;-83
2023/04/25 00:19:47;;;;;;;21.40;19.73;;;;;;;;;;5081180;28;20472;-84
2023/04/25 00:22:14;;;;;;;20.17;18.73;;;;;;;;;;5076151;28;20800;-85
2023/04/25 00:24:41;;;;;;;21.77;19.90;;;;;;;;;;5078163;28;20491;-84
2023/04/25 00:27:08;;;;;;;20.70;19.35;;;;;;;;;;5077511;28;20476;-84
2023/04/25 00:29:35;;;;;;;22.77;20.80;;;;;;;;;;5078339;28;20223;-83
2023/04/25 00:32:04;;;;;;;20.90;19.02;;;;;;;;;;5078344;28;20211;-83
2023/04/25 00:34:31;;;;;;;19.50;18.20;;;;;;;;;;5077128;28;20207;-83
2023/04/25 00:36:58;;;;;;;20.30;18.85;;;;;;;;;;5077071;28;20552;-83
2023/04/25 00:39:25;;;;;;;23.65;21.48;;;;;;;;;;5078767;28;20234;-83
2023/04/25 00:41:54;;;;;;;23.30;21.20;;;;;;;;;;5079363;28;20203;-84
2023/04/25 00:44:21;;;;;;;23.20;21.25;;;;;;;;;;5078770;28;20208;-84
2023/04/25 00:46:49;;;;;;;25.63;21.10;;;;;;;;;;5077374;28;20203;-84
2023/04/25 00:49:17;;;;;;;23.15;21.45;;;;;;;;;;5076506;28;20958;-83
2023/04/25 00:51:45;;;;;;;21.67;19.88;;;;;;;;;;5073988;28;20207;-84
2023/04/25 00:54:12;;;;;;;23.40;21.23;;;;;;;;;;5074338;28;20257;-84
2023/04/25 00:56:39;;;;;;;22.55;20.60;;;;;;;;;;5073970;28;20485;-83
2023/04/25 00:59:07;;;;;;;22.63;21.05;;;;;;;;;;5075059;28;20281;-84
2023/04/25 01:01:34;;;;;;;20.80;19.00;;;;;;;;;;5077237;28;20210;-84
2023/04/25 01:04:02;;;;;;;23.02;21.05;;;;;;;;;;5078605;28;20214;-83
2023/04/25 01:06:31;;;;;;;22.27;20.27;;;;;;;;;;5079384;28;20663;-83
2023/04/25 01:08:59;;;;;;;23.38;21.40;;;;;;;;;;5079476;28;20228;-83
2023/04/25 01:11:26;;;;;;;18.45;17.45;;;;;;;;;;5079920;28;20252;-84
2023/04/25 01:13:53;;;;;;;21.92;20.30;;;;;;;;;;5081090;28;20207;-83
2023/04/25 01:16:20;;;;;;;21.27;19.40;;;;;;;;;;5079716;28;20211;-83
2023/04/25 01:18:48;;;;;;;22.07;20.27;;;;;;;;;;5080574;28;20485;-84
2023/04/25 01:21:16;;;;;;;18.60;17.50;;;;;;;;;;5086761;28;20408;-84
2023/04/25 01:23:44;;;;;;;22.53;20.40;;;;;;;;;;5083733;28;20203;-83
2023/04/25 01:26:11;;;;;;;19.23;18.00;;;;;;;;;;5082619;28;20457;-84
2023/04/25 01:28:40;;;;;;;22.70;20.85;;;;;;;;;;5082767;28;20461;-84
2023/04/25 01:31:08;;;;;;;22.83;20.58;;;;;;;;;;5082213;28;20540;-83
2023/04/25 01:33:35;;;;;;;20.42;18.25;;;;;;;;;;5082615;28;20655;-83
2023/04/25 01:36:02;;;;;;;26.27;22.87;;;;;;;;;;5081361;28;20192;-84
2023/04/25 01:38:31;;;;;;;22.27;20.37;;;;;;;;;;5083159;28;20424;-83
2023/04/25 01:40:58;;;;;;;22.50;20.67;;;;;;;;;;5082037;28;20408;-83
2023/04/25 01:43:26;;;;;;;23.27;20.98;;;;;;;;;;5081553;28;20453;-84
2023/04/25 01:45:53;;;;;;;25.40;22.77;;;;;;;;;;5080966;28;20214;-83
2023/04/25 01:48:20;;;;;;;26.67;22.73;;;;;;;;;;5081991;28;20598;-84
2023/04/25 01:50:47;;;;;;;24.58;22.17;;;;;;;;;;5081568;28;20609;-83
2023/04/25 01:53:15;;;;;;;24.58;22.63;;;;;;;;;;5082468;28;20682;-84
2023/04/25 01:55:43;;;;;;;32.13;27.48;;;;;;;;;;5083266;28;20227;-84
2023/04/25 01:58:12;;;;;;;25.05;22.75;;;;;;;;;;5083581;28;20570;-84
2023/04/25 02:00:40;;;;;;;23.02;21.23;;;;;;;;;;5081569;28;20235;-83
2023/04/25 02:03:08;;;;;;;22.92;21.27;;;;;;;;;;5081808;28;20232;-83
2023/04/25 02:05:36;;;;;;;25.38;23.08;;;;;;;;;;5083918;28;20270;-84
2023/04/25 02:08:04;;;;;;;23.52;21.50;;;;;;;;;;5080475;28;20206;-83
2023/04/25 02:10:31;;;;;;;21.85;20.35;;;;;;;;;;5076890;28;20317;-83
2023/04/25 02:12:59;;;;;;;24.25;22.30;;;;;;;;;;5078308;28;20195;-83
2023/04/25 02:15:26;;;;;;;24.42;22.20;;;;;;;;;;5078492;28;20207;-83
2023/04/25 02:17:53;;;;;;;24.42;22.42;;;;;;;;;;5077754;28;20203;-82
2023/04/25 02:20:29;;;;;;;24.88;22.50;;;;;;;;;;5082032;28;20828;-83
2023/04/25 02:22:56;;;;;;;25.40;23.17;;;;;;;;;;5084334;28;20211;-83
2023/04/25 02:25:23;;;;;;;27.17;23.60;;;;;;;;;;5081172;28;20600;-83
2023/04/25 02:27:51;;;;;;;25.40;22.85;;;;;;;;;;5081949;28;20859;-83
2023/04/25 02:30:20;;;;;;;24.40;22.00;;;;;;;;;;5081714;28;20310;-84
2023/04/25 02:32:47;;;;;;;24.80;22.58;;;;;;;;;;5084694;28;20180;-84
2023/04/25 02:35:14;;;;;;;26.77;24.20;;;;;;;;;;5083118;28;20202;-84
2023/04/25 02:37:42;;;;;;;26.27;23.70;;;;;;;;;;5086215;28;20210;-84
2023/04/25 02:40:09;;;;;;;24.63;22.50;;;;;;;;;;5080717;28;20272;-84
2023/04/25 02:42:37;;;;;;;26.40;22.67;;;;;;;;;;5082252;28;20293;-83
2023/04/25 02:45:04;;;;;;;22.27;20.88;;;;;;;;;;5080577;28;20211;-83
2023/04/25 02:47:32;;;;;;;26.43;24.53;;;;;;;;;;5078659;28;20257;-83
2023/04/25 02:50:00;;;;;;;26.25;24.00;;;;;;;;;;5072773;28;20493;-83
2023/04/25 02:52:27;;;;;;;26.23;23.80;;;;;;;;;;5078427;28;20200;-83
2023/04/25 02:54:54;;;;;;;23.80;21.83;;;;;;;;;;5077746;28;20255;-83
2023/04/25 02:57:21;;;;;;;22.60;21.23;;;;;;;;;;5077114;28;20214;-83
2023/04/25 02:59:48;;;;;;;111.53;61.33;;;;;;;;;;5079302;28;20810;-83
2023/04/25 03:02:15;;;;;;;27.20;24.92;;;;;;;;;;5080475;28;20202;-83
2023/04/25 03:04:43;;;;;;;26.10;24.30;;;;;;;;;;5081507;28;20263;-84
2023/04/25 03:07:10;;;;;;;27.92;23.77;;;;;;;;;;5082729;28;20297;-84
2023/04/25 03:09:37;;;;;;;27.42;25.15;;;;;;;;;;5086015;28;20427;-84
2023/04/25 03:12:04;;;;;;;32.55;27.40;;;;;;;;;;5090425;28;20579;-83
2023/04/25 03:14:31;;;;;;;27.45;25.17;;;;;;;;;;5094473;28;20195;-83
2023/04/25 03:16:58;;;;;;;24.35;22.63;;;;;;;;;;5092295;28;20203;-83
2023/04/25 03:19:25;;;;;;;23.33;21.70;;;;;;;;;;5085453;28;20273;-83
2023/04/25 03:21:54;;;;;;;26.27;23.83;;;;;;;;;;5088689;28;20210;-83
2023/04/25 03:24:21;;;;;;;25.02;22.42;;;;;;;;;;5076283;28;20214;-83
2023/04/25 03:26:48;;;;;;;25.85;23.35;;;;;;;;;;5076868;28;20217;-82
2023/04/25 03:29:15;;;;;;;24.50;22.58;;;;;;;;;;5076708;28;20219;-83
2023/04/25 03:31:42;;;;;;;28.80;23.60;;;;;;;;;;5077246;28;20283;-83
2023/04/25 03:34:09;;;;;;;25.75;23.27;;;;;;;;;;5077522;28;20284;-84
2023/04/25 03:36:36;;;;;;;23.85;21.90;;;;;;;;;;5076853;28;20629;-83
2023/04/25 03:39:05;;;;;;;26.52;23.77;;;;;;;;;;5086325;28;20246;-84
2023/04/25 03:41:33;;;;;;;25.98;23.60;;;;;;;;;;5083306;28;20192;-83
2023/04/25 03:44:00;;;;;;;27.98;23.60;;;;;;;;;;5078436;28;20208;-83
2023/04/25 03:46:27;;;;;;;25.63;22.77;;;;;;;;;;5077501;28;20233;-83
2023/04/25 03:48:54;;;;;;;25.52;23.48;;;;;;;;;;5077368;28;20213;-84
2023/04/25 03:51:21;;;;;;;27.90;24.17;;;;;;;;;;5077495;28;20206;-83
2023/04/25 03:53:49;;;;;;;25.40;22.98;;;;;;;;;;5077386;28;20240;-83
2023/04/25 03:56:17;;;;;;;27.33;24.35;;;;;;;;;;5087334;28;20229;-84
2023/04/25 03:58:44;;;;;;;25.37;23.20;;;;;;;;;;5083467;28;20229;-84
2023/04/25 04:01:11;;;;;;;23.47;21.90;;;;;;;;;;5077104;28;20957;-83
2023/04/25 04:03:38;;;;;;;23.95;21.85;;;;;;;;;;5077109;28;20460;-83
2023/04/25 04:06:06;;;;;;;23.48;21.63;;;;;;;;;;5077259;28;20224;-83
2023/04/25 04:08:33;;;;;;;24.00;22.13;;;;;;;;;;5076986;28;20310;-83
2023/04/25 04:11:00;;;;;;;23.35;21.75;;;;;;;;;;5077424;28;20249;-84
2023/04/25 04:13:29;;;;;;;24.13;21.88;;;;;;;;;;5077511;28;20260;-84
2023/04/25 04:15:57;;;;;;;23.15;21.35;;;;;;;;;;5083205;28;20207;-83
2023/04/25 04:18:24;;;;;;;25.85;23.35;;;;;;;;;;5076019;28;20952;-83
2023/04/25 04:20:51;;;;;;;24.30;22.25;;;;;;;;;;5076938;28;20211;-82
2023/04/25 04:23:18;;;;;;;23.30;21.23;;;;;;;;;;5076999;28;20199;-81
2023/04/25 04:25:45;;;;;;;26.80;24.17;;;;;;;;;;5076341;28;20207;-81
2023/04/25 04:28:13;;;;;;;25.00;22.75;;;;;;;;;;5076763;28;20207;-82
2023/04/25 04:30:45;;;;;;;24.10;21.95;;;;;;;;;;5076963;28;20218;-81
2023/04/25 04:33:13;;;;;;;24.10;22.40;;;;;;;;;;5077538;28;20204;-82
2023/04/25 04:35:41;;;;;;;23.70;22.02;;;;;;;;;;5078710;28;20450;-81
2023/04/25 04:38:10;;;;;;;23.83;21.50;;;;;;;;;;5083220;28;20736;-81
2023/04/25 04:40:37;;;;;;;23.60;21.42;;;;;;;;;;5080931;28;20245;-82
2023/04/25 04:43:04;;;;;;;28.57;23.27;;;;;;;;;;5081102;28;20257;-82
2023/04/25 04:45:31;;;;;;;23.15;21.02;;;;;;;;;;5080998;28;20453;-82
2023/04/25 04:47:59;;;;;;;23.92;21.98;;;;;;;;;;5081979;28;20215;-82
2023/04/25 04:50:27;;;;;;;23.00;20.90;;;;;;;;;;5081460;28;20288;-82
2023/04/25 04:52:55;;;;;;;25.38;22.92;;;;;;;;;;5083581;28;20927;-81
2023/04/25 04:55:22;;;;;;;29.92;23.35;;;;;;;;;;5080968;28;20218;-82
2023/04/25 04:57:49;;;;;;;24.23;21.77;;;;;;;;;;5084678;28;20264;-81
2023/04/25 05:00:20;;;;;;;25.70;22.70;;;;;;;;;;5082981;28;20257;-83
2023/04/25 05:02:47;;;;;;;24.73;22.30;;;;;;;;;;5062854;28;20450;-82
2023/04/25 05:05:15;;;;;;;22.33;20.47;;;;;;;;;;5061309;28;20448;-81
2023/04/25 05:07:42;;;;;;;23.23;21.50;;;;;;;;;;5060976;28;20409;-82
2023/04/25 05:10:12;;;;;;;23.13;21.10;;;;;;;;;;5061414;28;20228;-82
2023/04/25 05:12:39;;;;;;;22.07;20.57;;;;;;;;;;5060525;28;20456;-81
2023/04/25 05:15:07;;;;;;;23.63;21.40;;;;;;;;;;5065960;28;20463;-82
2023/04/25 05:17:34;;;;;;;25.00;22.38;;;;;;;;;;5072551;28;20466;-82
2023/04/25 05:20:01;;;;;;;27.73;21.42;;;;;;;;;;5065247;28;20231;-82
2023/04/25 05:22:29;;;;;;;26.58;21.27;;;;;;;;;;5065287;28;20208;-82
2023/04/25 05:24:56;;;;;;;24.53;21.70;;;;;;;;;;5046578;28;20215;-82
2023/04/25 05:27:24;;;;;;;23.75;21.45;;;;;;;;;;5062909;28;20437;-82
2023/04/25 05:29:51;;;;;;;23.13;20.50;;;;;;;;;;5058977;28;20229;-82
2023/04/25 05:32:18;;;;;;;21.85;19.90;;;;;;;;;;5061409;28;20218;-82
2023/04/25 05:34:46;;;;;;;21.65;20.13;;;;;;;;;;5064195;28;20204;-82
2023/04/25 05:37:13;;;;;;;22.83;20.73;;;;;;;;;;5068007;28;20204;-82
2023/04/25 05:39:41;;;;;;;22.15;20.50;;;;;;;;;;5064593;28;20227;-81
2023/04/25 05:42:08;;;;;;;21.63;19.73;;;;;;;;;;5064119;28;20208;-82
2023/04/25 05:44:35;;;;;;;22.77;21.03;;;;;;;;;;5064153;28;20421;-82
2023/04/25 05:47:04;;;;;;;21.15;19.35;;;;;;;;;;5061789;28;20429;-82
2023/04/25 05:49:31;;;;;;;23.70;21.30;;;;;;;;;;5061180;28;20227;-82
2023/04/25 05:51:58;;;;;;;21.73;19.90;;;;;;;;;;5061843;28;20452;-82
2023/04/25 05:54:25;;;;;;;21.93;20.00;;;;;;;;;;5060523;28;20923;-82
2023/04/25 05:56:53;;;;;;;23.98;21.02;;;;;;;;;;5060292;28;20458;-82
2023/04/25 05:59:20;;;;;;;22.15;20.23;;;;;;;;;;5060147;28;20709;-82
2023/04/25 06:01:47;;;;;;;22.73;20.80;;;;;;;;;;5059250;28;20243;-82
2023/04/25 06:04:14;;;;;;;22.42;20.30;;;;;;;;;;5060051;28;20245;-82
2023/04/25 06:06:41;;;;;;;23.08;20.70;;;;;;;;;;5059717;28;20286;-81
2023/04/25 06:09:08;;;;;;;20.90;19.40;;;;;;;;;;5059943;28;20228;-82
2023/04/25 06:11:35;;;;;;;22.15;20.17;;;;;;;;;;5061291;28;20450;-82
2023/04/25 06:14:04;;;;;;;23.90;22.00;;;;;;;;;;5062868;28;20616;-82
2023/04/25 06:16:31;;;;;;;23.10;20.90;;;;;;;;;;5063656;28;20211;-81
2023/04/25 06:18:57;;;;;;;21.73;19.95;;;;;;;;;;5063378;28;20216;-82
2023/04/25 06:21:25;;;;;;;22.33;20.23;;;;;;;;;;5062548;28;20254;-81
2023/04/25 06:23:52;;;;;;;22.75;20.65;;;;;;;;;;5062460;28;20451;-82
2023/04/25 06:26:19;;;;;;;21.53;19.73;;;;;;;;;;5061752;28;20208;-83
2023/04/25 06:28:46;;;;;;;22.70;20.60;;;;;;;;;;5061802;28;20547;-82
2023/04/25 06:31:15;;;;;;;21.77;19.90;;;;;;;;;;5061744;28;20212;-81
2023/04/25 06:33:42;;;;;;;21.50;19.50;;;;;;;;;;5061990;28;20211;-81
2023/04/25 06:36:09;;;;;;;21.60;19.70;;;;;;;;;;5061104;28;20625;-82
2023/04/25 06:38:36;;;;;;;21.92;20.00;;;;;;;;;;5060141;28;20471;-82
2023/04/25 06:41:03;;;;;;;22.87;20.60;;;;;;;;;;5060511;28;20232;-82
2023/04/25 06:43:32;;;;;;;22.90;20.40;;;;;;;;;;5063749;28;20413;-81
2023/04/25 06:46:00;;;;;;;28.23;19.10;;;;;;;;;;5063215;28;20204;-81
2023/04/25 06:48:28;;;;;;;24.70;20.98;;;;;;;;;;5061872;28;20461;-82
2023/04/25 06:50:56;;;;;;;20.43;18.77;;;;;;;;;;5060567;28;20291;-81
2023/04/25 06:53:23;;;;;;;20.13;18.80;;;;;;;;;;5060788;28;20774;-82
2023/04/25 06:55:50;;;;;;;24.53;21.73;;;;;;;;;;5060565;28;20503;-82
2023/04/25 06:58:17;;;;;;;20.77;19.03;;;;;;;;;;5060656;28;20405;-82
2023/04/25 07:00:44;;;;;;;22.63;20.27;;;;;;;;;;5059528;28;20521;-82
2023/04/25 07:03:11;;;;;;;23.07;20.77;;;;;;;;;;5060269;28;20931;-82
2023/04/25 07:05:40;;;;;;;23.60;21.30;;;;;;;;;;5060700;28;20766;-82
2023/04/25 07:08:07;;;;;;;21.80;20.07;;;;;;;;;;5061957;28;20409;-80
2023/04/25 07:10:34;;;;;;;21.60;19.55;;;;;;;;;;5060007;28;20695;-80
2023/04/25 07:13:01;;;;;;;22.60;20.30;;;;;;;;;;5078832;28;20239;-80
2023/04/25 07:15:28;;;;;;;22.65;20.50;;;;;;;;;;5078532;28;20207;-80
2023/04/25 07:17:55;;;;;;;21.60;19.40;;;;;;;;;;5078137;28;20260;-80
2023/04/25 07:20:22;;;;;;;24.80;22.20;;;;;;;;;;5076891;28;20460;-79
2023/04/25 07:22:50;;;;;;;21.03;19.83;;;;;;;;;;5077698;28;20453;-80
2023/04/25 07:25:18;;;;;;;23.27;20.90;;;;;;;;;;5077792;28;20427;-80
2023/04/25 07:27:45;;;;;;;22.23;20.20;;;;;;;;;;5076200;28;20485;-80
2023/04/25 07:30:12;;;;;;;23.27;21.43;;;;;;;;;;5076282;28;20448;-80
2023/04/25 07:32:40;;;;;;;21.97;20.23;;;;;;;;;;5077054;28;20424;-79
2023/04/25 07:35:07;;;;;;;22.50;20.27;;;;;;;;;;5077030;28;20477;-80
2023/04/25 07:37:34;;;;;;;22.97;20.90;;;;;;;;;;5078914;28;20416;-80
2023/04/25 07:40:04;;;;;;;23.57;20.70;;;;;;;;;;5079405;28;20829;-84
2023/04/25 07:42:31;;;;;;;21.77;19.90;;;;;;;;;;5077537;28;20478;-84
2023/04/25 07:44:58;;;;;;;23.20;20.80;;;;;;;;;;5079443;28;20450;-80
2023/04/25 07:47:25;;;;;;;22.77;20.57;;;;;;;;;;5080981;28;20474;-80
2023/04/25 07:49:53;;;;;;;21.67;19.77;;;;;;;;;;5079791;28;20993;-80
2023/04/25 07:52:21;;;;;;;22.47;20.20;;;;;;;;;;5080028;28;20781;-80
2023/04/25 07:54:48;;;;;;;22.27;20.10;;;;;;;;;;5079528;28;20435;-80
2023/04/25 07:57:16;;;;;;;19.47;17.97;;;;;;;;;;5078739;28;20479;-79
2023/04/25 07:59:43;;;;;;;21.80;19.50;;;;;;;;;;5078687;28;20535;-79
2023/04/25 08:02:10;;;;;;;21.63;19.90;;;;;;;;;;5078697;28;20455;-79
2023/04/25 08:04:37;;;;;;;22.23;20.57;;;;;;;;;;5078647;28;20431;-79
2023/04/25 08:07:04;;;;;;;22.97;20.60;;;;;;;;;;5078775;28;20416;-80
2023/04/25 08:09:34;;;;;;;26.47;22.57;;;;;;;;;;5077203;28;20445;-79
2023/04/25 08:12:01;;;;;;;22.70;20.70;;;;;;;;;;5078702;28;20416;-79
2023/04/25 08:14:35;;;;;;;21.77;20.10;;;;;;;;;;5079566;28;20458;-79
2023/04/25 08:17:03;;;;;;;21.17;19.67;;;;;;;;;;5078041;28;20465;-79
2023/04/25 08:19:30;;;;;;;20.80;19.50;;;;;;;;;;5078929;28;20452;-80
2023/04/25 08:21:57;;;;;;;22.30;20.63;;;;;;;;;;5078556;28;20877;-79
2023/04/25 08:24:24;;;;;;;23.43;21.53;;;;;;;;;;5078200;28;20424;-80
2023/04/25 08:26:53;;;;;;;23.10;21.43;;;;;;;;;;5078634;28;20416;-80
2023/04/25 08:29:20;;;;;;;22.03;20.20;;;;;;;;;;5078499;28;20486;-80
2023/04/25 08:31:49;;;;;;;22.30;20.53;;;;;;;;;;5079079;28;20428;-79
2023/04/25 08:34:16;;;;;;;26.83;22.40;;;;;;;;;;5077816;28;20938;-79
2023/04/25 08:36:43;;;;;;;25.03;22.60;;;;;;;;;;5077197;28;20449;-79
2023/04/25 08:39:10;;;;;;;22.63;20.43;;;;;;;;;;5076456;28;20466;-80
2023/04/25 08:41:38;;;;;;;21.40;20.20;;;;;;;;;;5077094;28;20875;-81
2023/04/25 08:44:07;;;;;;;23.50;21.40;;;;;;;;;;5076981;28;20451;-81
2023/04/25 08:46:34;;;;;;;22.67;21.07;;;;;;;;;;5077890;28;20449;-81
2023/04/25 08:49:03;;;;;;;24.43;22.33;;;;;;;;;;5077401;28;20481;-81
2023/04/25 08:51:32;;;;;;;22.90;21.10;;;;;;;;;;5077657;28;20465;-80
2023/04/25 08:54:05;;;;;;;22.33;20.50;;;;;;;;;;5079531;28;20409;-80
2023/04/25 08:56:34;;;;;;;22.33;20.80;;;;;;;;;;5077548;28;20464;-80
2023/04/25 08:59:02;;;;;;;20.47;19.27;;;;;;;;;;5077948;28;20500;-80
2023/04/25 09:01:29;;;;;;;21.80;20.40;;;;;;;;;;5078647;28;20451;-80
2023/04/25 09:03:56;;;;;;;24.43;22.40;;;;;;;;;;5077811;28;20424;-80
2023/04/25 09:06:26;;;;;;;23.10;20.90;;;;;;;;;;5076038;28;20448;-80
2023/04/25 09:08:53;;;;;;;23.90;21.80;;;;;;;;;;5077467;28;20929;-80
2023/04/25 09:11:20;;;;;;;22.10;20.60;;;;;;;;;;5078036;28;20908;-79
2023/04/25 09:13:47;;;;;;;25.00;22.20;;;;;;;;;;5078722;28;20446;-80
2023/04/25 09:16:17;;;;;;;22.27;20.53;;;;;;;;;;5075602;28;20444;-81
2023/04/25 09:18:44;;;;;;;22.20;20.20;;;;;;;;;;5077558;28;20945;-81
2023/04/25 09:21:12;;;;;;;22.80;20.80;;;;;;;;;;5077557;28;20477;-81
2023/04/25 09:23:45;;;;;;;22.60;20.83;;;;;;;;;;5062595;28;20429;-80
2023/04/25 09:26:16;;;;;;;21.23;19.60;;;;;;;;;;5081948;28;20453;-81
2023/04/25 09:28:43;;;;;;;22.10;20.53;;;;;;;;;;5084090;28;20447;-80
2023/04/25 09:31:11;;;;;;;23.03;21.07;;;;;;;;;;5080873;28;20424;-81
2023/04/25 09:33:39;;;;;;;23.20;21.70;;;;;;;;;;5083869;28;20578;-80
2023/04/25 09:36:08;;;;;;;23.90;22.00;;;;;;;;;;5081036;28;20428;-81
2023/04/25 09:38:42;;;;;;;22.70;21.00;;;;;;;;;;5082590;28;20457;-81
2023/04/25 09:41:11;;;;;;;23.77;22.17;;;;;;;;;;5087171;28;22405;-83
2023/04/25 09:43:38;;;;;;;22.87;21.40;;;;;;;;;;5085962;28;20475;-82
2023/04/25 09:46:09;;;;;;;21.87;20.37;;;;;;;;;;5087715;28;20477;-82
2023/04/25 09:48:36;;;;;;;23.90;22.20;;;;;;;;;;5085814;28;20448;-81
2023/04/25 09:51:07;;;;;;;22.10;20.70;;;;;;;;;;5086457;28;20445;-81
2023/04/25 09:53:35;;;;;;;22.60;21.10;;;;;;;;;;5085057;28;20446;-81
2023/04/25 09:56:05;;;;;;;22.43;20.93;;;;;;;;;;5085028;28;20474;-81
2023/04/25 09:58:33;;;;;;;22.97;21.37;;;;;;;;;;5084684;28;20462;-80
2023/04/25 10:01:01;;;;;;;23.00;21.67;;;;;;;;;;5084258;28;20516;-81
2023/04/25 10:03:31;;;;;;;22.13;20.83;;;;;;;;;;5084431;28;20500;-80
2023/04/25 10:05:59;;;;;;;23.00;21.40;;;;;;;;;;5083322;28;20461;-81
2023/04/25 10:08:26;;;;;;;24.10;21.97;;;;;;;;;;5083329;28;20507;-81
2023/04/25 10:10:53;;;;;;;22.53;21.10;;;;;;;;;;5083286;28;20408;-81
2023/04/25 10:13:20;;;;;;;22.40;20.70;;;;;;;;;;5083765;28;20469;-80
2023/04/25 10:15:49;;;;;;;24.57;22.67;;;;;;;;;;5084895;28;20424;-81
2023/04/25 10:18:18;;;;;;;23.40;21.47;;;;;;;;;;5086373;28;20450;-81
2023/04/25 10:20:45;;;;;;;21.67;20.47;;;;;;;;;;5084448;28;20934;-81
2023/04/25 10:23:14;;;;;;;22.00;20.37;;;;;;;;;;5085670;28;20464;-81
2023/04/25 10:25:42;;;;;;;25.80;23.60;;;;;;;;;;5085869;28;20417;-81
2023/04/25 10:28:10;;;;;;;24.00;22.03;;;;;;;;;;5086712;28;20442;-81
2023/04/25 10:30:37;;;;;;;23.57;21.80;;;;;;;;;;5085853;28;20451;-81
2023/04/25 10:33:18;;;;;;;22.70;21.20;;;;;;;;;;5084758;28;20478;-81
2023/04/25 10:35:46;;;;;;;25.00;23.10;;;;;;;;;;5082145;28;20461;-81
2023/04/25 10:38:16;;;;;;;25.03;23.00;;;;;;;;;;5083399;28;20533;-81
2023/04/25 10:40:43;;;;;;;22.50;21.10;;;;;;;;;;5082728;28;20457;-81
2023/04/25 10:43:28;;;;;;;21.90;20.40;;;;;;;;;;5082546;28;20489;-81
2023/04/25 10:45:56;;;;;;;22.87;20.73;;;;;;;;;;5081795;28;20421;-81
2023/04/25 10:48:30;;;;;;;25.37;23.17;;;;;;;;;;5081647;28;20553;-81
2023/04/25 10:51:12;;;;;;;24.27;22.60;;;;;;;;;;5081271;28;20919;-81
2023/04/25 10:53:39;;;;;;;23.10;21.50;;;;;;;;;;5075157;28;20475;-88
2023/04/25 10:56:11;;;;;;;25.20;22.97;;;;;;;;;;5075971;28;20451;-88
2023/04/25 10:58:43;;;;;;;23.83;21.40;;;;;;;;;;5076453;28;20461;-87
2023/04/25 11:01:10;;;;;;;25.17;23.27;;;;;;;;;;5078951;28;20401;-88
2023/04/25 11:03:41;;;;;;;24.47;22.63;;;;;;;;;;5078538;28;20525;-88
2023/04/25 11:06:12;;;;;;;23.70;21.77;;;;;;;;;;5078526;28;20851;-79
2023/04/25 11:08:51;;;;;;;26.13;23.53;;;;;;;;;;5079196;28;20444;-80
2023/04/25 11:11:18;;;;;;;23.47;21.73;;;;;;;;;;5079677;28;20511;-79
2023/04/25 11:13:45;;;;;;;24.43;22.30;;;;;;;;;;5079565;28;20436;-79
2023/04/25 11:16:13;;;;;;;23.90;22.00;;;;;;;;;;5080609;28;20442;-78
2023/04/25 11:18:43;;;;;;;22.47;20.90;;;;;;;;;;5078934;28;20513;-79
2023/04/25 11:21:10;;;;;;;22.60;21.10;;;;;;;;;;5078967;28;20937;-79
2023/04/25 11:23:37;;;;;;;22.43;20.93;;;;;;;;;;5079945;28;20568;-79
2023/04/25 11:26:05;;;;;;;25.57;23.33;;;;;;;;;;5079746;28;20458;-79
2023/04/25 11:28:32;;;;;;;25.03;23.33;;;;;;;;;;5090685;28;20433;-79
2023/04/25 11:31:00;;;;;;;25.37;23.50;;;;;;;;;;5090056;28;20439;-79
2023/04/25 11:33:27;;;;;;;24.27;22.67;;;;;;;;;;5087520;28;20443;-79
2023/04/25 11:35:56;;;;;;;25.07;23.13;;;;;;;;;;5080841;28;20530;-79
2023/04/25 11:38:24;;;;;;;25.10;22.40;;;;;;;;;;5081780;28;20496;-85
2023/04/25 11:40:51;;;;;;;22.70;21.20;;;;;;;;;;5075409;28;20413;-86
2023/04/25 11:43:19;;;;;;;23.00;21.57;;;;;;;;;;5075555;28;20456;-82
2023/04/25 11:45:47;;;;;;;23.40;21.50;;;;;;;;;;5080829;28;20500;-78
2023/04/25 11:48:14;;;;;;;22.23;20.53;;;;;;;;;;5087444;28;20420;-79
2023/04/25 11:50:41;;;;;;;22.07;20.70;;;;;;;;;;5085255;28;20420;-79
2023/04/25 11:53:10;;;;;;;21.87;20.37;;;;;;;;;;5080375;28;20442;-79
2023/04/25 11:55:37;;;;;;;23.97;22.17;;;;;;;;;;5079432;28;20478;-78
2023/04/25 11:58:05;;;;;;;20.93;19.40;;;;;;;;;;5080353;28;20501;-79
2023/04/25 12:00:32;;;;;;;20.73;19.43;;;;;;;;;;5080678;28;20538;-78
2023/04/25 12:03:00;;;;;;;21.80;20.40;;;;;;;;;;5079974;28;20452;-79
2023/04/25 12:05:28;;;;;;;21.93;20.27;;;;;;;;;;5083153;28;20428;-80
2023/04/25 12:07:55;;;;;;;21.47;20.27;;;;;;;;;;5082411;28;20431;-79
2023/04/25 12:10:26;;;;;;;22.60;21.20;;;;;;;;;;5079366;28;20851;-79
2023/04/25 12:12:53;;;;;;;21.93;20.63;;;;;;;;;;5083376;28;20411;-79
2023/04/25 12:15:24;;;;;;;21.90;20.47;;;;;;;;;;5082553;28;20457;-79
2023/04/25 12:17:52;;;;;;;21.97;20.63;;;;;;;;;;5084445;28;20424;-80
2023/04/25 12:20:20;;;;;;;23.13;21.57;;;;;;;;;;5081389;28;20453;-79
2023/04/25 12:22:48;;;;;;;22.30;20.80;;;;;;;;;;5080957;28;20561;-79
2023/04/25 12:25:35;;;;;;;23.20;21.60;;;;;;;;;;5079178;28;20417;-78
2023/04/25 12:28:12;;;;;;;22.07;20.63;;;;;;;;;;5080849;28;20430;-78
2023/04/25 12:30:53;;;;;;;22.33;20.83;;;;;;;;;;5078462;28;20864;-82
2023/04/25 12:33:20;;;;;;;24.17;22.37;;;;;;;;;;5080619;28;20430;-81
2023/04/25 12:35:47;;;;;;;24.13;22.43;;;;;;;;;;5081906;28;20454;-80
2023/04/25 12:38:21;;;;;;;22.63;21.13;;;;;;;;;;5078543;28;20428;-81
2023/04/25 12:40:48;;;;;;;22.47;21.17;;;;;;;;;;5078363;28;20431;-80
2023/04/25 12:43:17;;;;;;;21.83;20.50;;;;;;;;;;5082586;28;20464;-81
2023/04/25 12:45:44;;;;;;;24.53;22.53;;;;;;;;;;5087132;28;20564;-81
2023/04/25 12:48:11;;;;;;;21.47;20.07;;;;;;;;;;5082299;28;20424;-81
2023/04/25 12:50:38;;;;;;;22.37;21.00;;;;;;;;;;5081471;28;20499;-81
2023/04/25 12:53:05;;;;;;;21.77;20.37;;;;;;;;;;5081606;28;20442;-80
2023/04/25 12:55:32;;;;;;;21.53;20.20;;;;;;;;;;5080583;28;20409;-80
2023/04/25 12:57:59;;;;;;;23.53;21.83;;;;;;;;;;5084020;28;20416;-81
2023/04/25 13:00:27;;;;;;;23.20;21.60;;;;;;;;;;5082766;28;20468;-81
2023/04/25 13:02:54;;;;;;;21.70;20.30;;;;;;;;;;5082210;28;20477;-81
2023/04/25 13:05:21;;;;;;;22.90;21.30;;;;;;;;;;5084006;28;20417;-81
2023/04/25 13:07:49;;;;;;;21.90;20.50;;;;;;;;;;5081222;28;20445;-81
2023/04/25 13:10:16;;;;;;;21.73;20.30;;;;;;;;;;5080772;28;20464;-81
2023/04/25 13:12:43;;;;;;;20.93;19.73;;;;;;;;;;5087392;28;20918;-81
2023/04/25 13:15:11;;;;;;;22.47;21.07;;;;;;;;;;5090032;28;20430;-81
2023/04/25 13:17:40;;;;;;;22.37;21.00;;;;;;;;;;5089379;28;21043;-80
2023/04/25 13:20:08;;;;;;;22.20;20.73;;;;;;;;;;5086951;28;20535;-81
2023/04/25 13:22:36;;;;;;;22.07;20.67;;;;;;;;;;5089880;28;20511;-80
2023/04/25 13:25:03;;;;;;;22.37;20.93;;;;;;;;;;5086949;28;20437;-81
2023/04/25 13:27:32;;;;;;;22.30;20.87;;;;;;;;;;5088356;28;20419;-81
2023/04/25 13:29:59;;;;;;;22.17;20.87;;;;;;;;;;5088547;28;20454;-81
2023/04/25 13:32:26;;;;;;;22.33;20.83;;;;;;;;;;5089951;28;20452;-81
2023/04/25 13:34:55;;;;;;;21.83;20.63;;;;;;;;;;5086735;28;20508;-81
2023/04/25 13:37:23;;;;;;;22.87;21.47;;;;;;;;;;5085554;28;20445;-81
2023/04/25 13:39:51;;;;;;;23.23;21.70;;;;;;;;;;5083195;28;20470;-81
2023/04/25 13:42:18;;;;;;;23.60;21.80;;;;;;;;;;5083025;28;21312;-81
2023/04/25 13:44:45;;;;;;;21.60;20.40;;;;;;;;;;5082727;28;20492;-81
2023/04/25 13:47:12;;;;;;;22.20;20.90;;;;;;;;;;5081411;28;20428;-81
2023/04/25 13:49:39;;;;;;;22.83;21.33;;;;;;;;;;5081822;28;20473;-81
2023/04/25 13:52:07;;;;;;;22.60;21.20;;;;;;;;;;5083462;28;20453;-82
2023/04/25 13:54:34;;;;;;;22.00;20.77;;;;;;;;;;5083974;28;20420;-81
2023/04/25 13:57:01;;;;;;;22.90;21.43;;;;;;;;;;5083666;28;20449;-81
2023/04/25 13:59:28;;;;;;;21.73;20.43;;;;;;;;;;5085414;28;20510;-82
2023/04/25 14:01:55;;;;;;;21.80;20.50;;;;;;;;;;5086935;28;20420;-82
2023/04/25 14:04:23;;;;;;;22.10;20.90;;;;;;;;;;5084822;28;20487;-82
2023/04/25 14:06:50;;;;;;;22.67;21.03;;;;;;;;;;5084634;28;20439;-82
2023/04/25 14:09:20;;;;;;;22.50;21.00;;;;;;;;;;5084645;28;20455;-82
2023/04/25 14:11:47;;;;;;;24.63;22.73;;;;;;;;;;5085867;28;20423;-82
2023/04/25 14:14:16;;;;;;;22.63;21.33;;;;;;;;;;5085478;28;20428;-82
2023/04/25 14:16:43;;;;;;;21.87;20.57;;;;;;;;;;5084754;28;20467;-82
2023/04/25 14:19:10;;;;;;;24.33;22.63;;;;;;;;;;5085211;28;20924;-82